Terminal Aerodrome Forecast
Issued by NWS

Home | Current Version | Previous Version | Text Only | Print | Product List | Glossary On
Versions: 1 2 3 4 5 6 7 8 9 10 11 12 13 14 15 16 17 18 19 20 21 22 23 24
000
FTUS43 KMKX 231128
TAFENW
TAF
KENW 231128Z 2312/2412 15011KT P6SM BKN090
     FM240000 15011G19KT P6SM VCSH OVC040
     FM240400 19009KT P6SM BKN040 WS020/20060KT
     FM241000 21009KT P6SM SCT120 WS020/24040KT=

USA.gov is the U.S. government's official web portal to all federal, state and local government web resources and services.